Nash, North Dakota
Current Conditions -  °F | °C
As of 1:15 AM on Friday 31 Oct 2014 (Local Time) from KGAF Reporting Station
Clear Clear  
Wind Chill: 10°   Ceiling: Unl
Heat Index: 19°   Visibility: 10mi
Dew Point: 14°   Wind: 7mph
Humidity: 80%   Direction: 350°N
Pressure: 30.61"   Gusts: NA
Location:  48.4031°N, 97.4245°W
Report Text: KGAF 310615Z AUTO 35006KT 10SM CLR M07/M10 A3061 RMK AO2
Loading
Personal Weather Stations






























Interactive Weather Map
Tropical Storm Tracking
New forecast layout! Learn more

10-Day Weather Forecast

Advertisements
Track Severe Weather on mobile